Time;durP1;ratioP1;P1;durP2;ratioP2;P2;SDS_P1;SDS_P2;PMS_P1;PMS_P2;Temp;Humidity;BMP_temperature;BMP_pressure;BME280_temperature;BME280_humidity;BME280_pressure;Samples;Min_cycle;Max_cycle;Signal;HPM_P1;HPM_P2
2024/02/01 00:00:26;;;;;;;4.28;1.95;;;;;;;20.81;41.51;102331.00;4923116;28;127981;-77
2024/02/01 00:02:51;;;;;;;3.38;1.17;;;;;;;20.81;41.40;102336.31;4893683;28;124922;-77
2024/02/01 00:05:17;;;;;;;3.20;1.63;;;;;;;20.82;41.75;102339.81;4910328;28;104911;-76
2024/02/01 00:07:43;;;;;;;2.45;1.33;;;;;;;20.81;41.64;102343.38;4925927;28;97528;-76
2024/02/01 00:10:08;;;;;;;2.80;1.33;;;;;;;20.80;41.73;102329.25;4893695;28;98610;-76
2024/02/01 00:12:34;;;;;;;3.53;1.75;;;;;;;20.82;41.73;102331.88;4910812;28;96839;-77
2024/02/01 00:14:59;;;;;;;4.55;1.90;;;;;;;20.81;41.46;102332.78;4928431;28;97307;-77
2024/02/01 00:17:25;;;;;;;2.42;1.48;;;;;;;20.81;41.67;102332.78;4927305;28;96736;-76
2024/02/01 00:19:51;;;;;;;2.75;1.70;;;;;;;20.82;41.39;102326.56;4928177;28;97545;-76
2024/02/01 00:22:16;;;;;;;4.00;1.73;;;;;;;20.81;41.62;102331.00;4928474;28;97532;-76
2024/02/01 00:24:41;;;;;;;3.08;2.10;;;;;;;20.81;41.38;102327.47;4927629;28;105712;-76
2024/02/01 00:27:07;;;;;;;2.60;1.88;;;;;;;20.81;41.55;102333.66;4910101;28;113418;-77
2024/02/01 00:29:32;;;;;;;3.17;2.00;;;;;;;20.81;41.97;102332.78;4908496;28;130025;-76
2024/02/01 00:31:58;;;;;;;2.53;1.15;;;;;;;20.80;41.75;102331.00;4906736;28;97283;-76
2024/02/01 00:34:23;;;;;;;3.33;1.63;;;;;;;20.80;41.75;102331.00;4927425;28;97495;-75
2024/02/01 00:36:49;;;;;;;3.30;1.70;;;;;;;20.80;41.72;102341.63;4910754;28;110045;-76
2024/02/01 00:39:15;;;;;;;3.50;1.88;;;;;;;20.80;41.43;102345.16;4926450;28;97470;-76
2024/02/01 00:41:40;;;;;;;2.97;1.58;;;;;;;20.81;41.48;102332.78;4909616;28;118123;-76
2024/02/01 00:44:06;;;;;;;4.25;1.98;;;;;;;20.80;41.60;102345.16;4917669;28;96890;-76
2024/02/01 00:46:31;;;;;;;3.58;1.70;;;;;;;20.81;41.83;102335.44;4925087;28;111845;-76
2024/02/01 00:48:56;;;;;;;4.05;1.90;;;;;;;20.81;41.49;102335.44;4892529;28;126102;-76
2024/02/01 00:51:22;;;;;;;2.65;1.63;;;;;;;20.80;41.79;102338.97;4909392;28;123150;-76
2024/02/01 00:53:47;;;;;;;2.63;1.25;;;;;;;20.80;41.82;102329.25;4929447;28;97235;-76
2024/02/01 00:56:13;;;;;;;2.92;1.52;;;;;;;20.81;41.55;102338.09;4916496;28;124967;-77
2024/02/01 00:58:38;;;;;;;4.57;1.38;;;;;;;20.80;41.64;102326.59;4903093;28;100883;-76
2024/02/01 01:01:04;;;;;;;3.38;1.25;;;;;;;20.80;41.90;102316.00;4924912;28;121567;-76
2024/02/01 01:03:29;;;;;;;2.67;1.33;;;;;;;20.81;41.54;102328.34;4909543;28;98296;-76
2024/02/01 01:05:54;;;;;;;3.67;1.73;;;;;;;20.79;41.64;102323.97;4922334;28;114411;-77
2024/02/01 01:08:20;;;;;;;2.75;1.77;;;;;;;20.80;41.63;102323.94;4923204;28;97476;-75
2024/02/01 01:10:45;;;;;;;3.22;1.65;;;;;;;20.80;41.80;102329.25;4925981;28;97079;-76
2024/02/01 01:13:11;;;;;;;2.70;1.48;;;;;;;20.79;41.51;102314.22;4925678;28;96848;-76
2024/02/01 01:15:37;;;;;;;2.50;1.20;;;;;;;20.80;41.64;102312.44;4907415;28;98079;-76
2024/02/01 01:18:02;;;;;;;2.95;1.95;;;;;;;20.81;41.91;102316.88;4923050;28;122662;-76
2024/02/01 01:20:28;;;;;;;2.63;1.80;;;;;;;20.80;41.77;102309.78;4926861;28;97342;-77
2024/02/01 01:22:53;;;;;;;2.55;1.80;;;;;;;20.79;41.61;102314.22;4910151;28;97668;-77
2024/02/01 01:25:19;;;;;;;3.88;1.23;;;;;;;20.80;41.62;102313.34;4927825;28;97527;-77
2024/02/01 01:27:44;;;;;;;3.90;1.42;;;;;;;20.81;41.75;102316.88;4909472;28;97468;-77
2024/02/01 01:30:10;;;;;;;3.22;1.92;;;;;;;20.81;41.91;102319.53;4926699;28;99347;-77
2024/02/01 01:32:35;;;;;;;2.75;1.73;;;;;;;20.80;41.94;102308.03;4927811;28;96656;-77
2024/02/01 01:35:02;;;;;;;2.58;1.10;;;;;;;20.81;41.62;102308.91;4892643;28;127069;-76
2024/02/01 01:37:28;;;;;;;2.47;1.77;;;;;;;20.80;41.67;102304.50;4911294;28;99752;-77
2024/02/01 01:39:53;;;;;;;3.50;2.45;;;;;;;20.80;41.51;102299.19;4929215;28;97435;-77
2024/02/01 01:42:18;;;;;;;2.10;1.33;;;;;;;20.80;41.58;102307.13;4906102;28;121766;-76
2024/02/01 01:44:44;;;;;;;2.85;1.60;;;;;;;20.80;41.90;102309.78;4910757;28;127834;-77
2024/02/01 01:47:09;;;;;;;4.32;2.00;;;;;;;20.80;41.89;102309.78;4929578;28;124023;-77
2024/02/01 01:49:35;;;;;;;3.17;1.77;;;;;;;20.80;41.84;102309.78;4900761;28;96868;-77
2024/02/01 01:52:01;;;;;;;3.08;1.73;;;;;;;20.80;41.63;102312.44;4910476;28;97116;-77
2024/02/01 01:54:30;;;;;;;3.25;1.45;;;;;;;20.80;41.85;102320.41;4928589;28;98639;-77
2024/02/01 01:56:57;;;;;;;2.85;1.60;;;;;;;20.79;41.64;102316.00;4941363;28;97449;-77
2024/02/01 01:59:23;;;;;;;2.30;1.23;;;;;;;20.79;41.59;102319.53;4930081;28;96781;-77
2024/02/01 02:01:50;;;;;;;2.35;1.38;;;;;;;20.81;41.67;102308.91;4931015;28;97609;-77
2024/02/01 02:04:15;;;;;;;2.58;1.17;;;;;;;20.79;41.85;102308.06;4928731;28;98791;-77
2024/02/01 02:06:43;;;;;;;3.53;1.70;;;;;;;20.80;41.91;102307.13;4927138;28;127200;-77
2024/02/01 02:09:12;;;;;;;2.40;1.40;;;;;;;20.80;41.73;102316.00;4908189;28;97505;-77
2024/02/01 02:11:46;;;;;;;2.20;1.23;;;;;;;20.79;41.96;102316.88;4927765;28;96871;-77
2024/02/01 02:14:14;;;;;;;3.25;1.05;;;;;;;20.79;41.98;102321.31;4909421;28;100131;-77
2024/02/01 02:16:39;;;;;;;2.70;1.48;;;;;;;20.79;42.04;102308.91;4928507;28;100354;-76
2024/02/01 02:19:09;;;;;;;3.00;1.80;;;;;;;20.80;41.77;102323.03;4930515;28;96726;-76
2024/02/01 02:21:48;;;;;;;2.42;1.23;;;;;;;20.80;41.91;102323.03;4911645;28;97616;-77
2024/02/01 02:24:14;;;;;;;1.92;1.42;;;;;;;20.78;41.98;102323.06;4926112;28;98691;-77
2024/02/01 02:26:40;;;;;;;3.17;1.75;;;;;;;20.78;41.70;102320.41;4922409;28;97398;-77
2024/02/01 02:29:05;;;;;;;4.88;1.40;;;;;;;20.79;41.96;102326.63;4927807;28;96884;-76
2024/02/01 02:31:31;;;;;;;2.58;1.33;;;;;;;20.80;42.03;102331.00;4909582;28;97082;-76
2024/02/01 02:33:57;;;;;;;2.92;1.60;;;;;;;20.79;41.79;102326.63;4910964;28;98195;-77
2024/02/01 02:36:22;;;;;;;3.00;1.13;;;;;;;20.78;41.93;102330.13;4927035;28;97561;-76
2024/02/01 02:38:47;;;;;;;3.17;1.30;;;;;;;20.79;41.64;102334.56;4895921;28;96790;-77
2024/02/01 02:41:13;;;;;;;2.30;1.35;;;;;;;20.79;42.06;102337.22;4926312;28;97321;-77
2024/02/01 02:43:38;;;;;;;3.05;1.30;;;;;;;20.78;41.90;102338.09;4896022;28;99904;-77
2024/02/01 02:46:03;;;;;;;2.63;1.42;;;;;;;20.79;41.69;102353.13;4907889;28;125381;-77
2024/02/01 02:48:29;;;;;;;3.00;1.83;;;;;;;20.79;41.72;102361.97;4909359;28;119383;-77
2024/02/01 02:50:54;;;;;;;2.67;1.70;;;;;;;20.79;41.72;102350.47;4907687;28;122422;-77
2024/02/01 02:53:19;;;;;;;2.45;1.15;;;;;;;20.78;42.15;102352.22;4922220;28;112278;-77
2024/02/01 02:55:45;;;;;;;2.70;1.23;;;;;;;20.78;41.65;102343.41;4892525;28;125517;-77
2024/02/01 02:58:10;;;;;;;3.63;1.55;;;;;;;20.79;42.01;102347.81;4899759;28;97918;-76
2024/02/01 03:00:35;;;;;;;2.45;1.48;;;;;;;20.79;41.88;102347.81;4927631;28;97503;-77
2024/02/01 03:03:01;;;;;;;3.00;1.70;;;;;;;20.79;42.17;102353.13;4928627;28;126483;-77
2024/02/01 03:05:26;;;;;;;2.00;1.13;;;;;;;20.78;41.77;102354.88;4911319;28;98165;-77
2024/02/01 03:07:53;;;;;;;2.50;1.23;;;;;;;20.78;41.75;102357.53;4929004;28;122213;-77
2024/02/01 03:10:19;;;;;;;3.25;1.65;;;;;;;20.79;41.64;102356.66;4910933;28;96946;-77
2024/02/01 03:12:45;;;;;;;1.95;1.13;;;;;;;20.79;41.89;102355.78;4911875;28;98414;-77
2024/02/01 03:15:10;;;;;;;1.85;1.20;;;;;;;20.78;41.94;102352.22;4927876;28;97428;-77
2024/02/01 03:17:37;;;;;;;2.50;1.23;;;;;;;20.79;42.05;102361.09;4911963;28;96973;-77
2024/02/01 03:20:22;;;;;;;2.03;1.40;;;;;;;20.78;42.16;102362.84;4911070;28;97031;-77
2024/02/01 03:22:48;;;;;;;2.65;1.20;;;;;;;20.78;42.02;102360.19;4921961;28;97940;-77
2024/02/01 03:25:13;;;;;;;2.78;1.25;;;;;;;20.78;41.82;102365.47;4927418;28;97567;-77
2024/02/01 03:27:43;;;;;;;2.00;1.05;;;;;;;20.78;41.84;102375.22;4929108;28;97016;-77
2024/02/01 03:30:11;;;;;;;2.42;1.83;;;;;;;20.79;41.81;102379.66;4918278;28;97225;-77
2024/02/01 03:32:40;;;;;;;2.33;1.60;;;;;;;20.78;41.88;102376.09;4923408;28;98493;-76
2024/02/01 03:35:07;;;;;;;2.60;1.50;;;;;;;20.78;42.03;102381.38;4921434;28;96759;-77
2024/02/01 03:37:32;;;;;;;2.90;1.13;;;;;;;20.79;42.00;102380.50;4917642;28;97053;-77
2024/02/01 03:39:58;;;;;;;2.58;1.05;;;;;;;20.78;41.54;102378.75;4908330;28;97273;-77
2024/02/01 03:42:23;;;;;;;2.78;1.52;;;;;;;20.79;42.06;102390.25;4911128;28;98104;-77
2024/02/01 03:44:49;;;;;;;2.35;1.70;;;;;;;20.79;42.08;102384.94;4926930;28;96794;-77
2024/02/01 03:47:14;;;;;;;1.73;1.40;;;;;;;20.78;42.01;102384.03;4927744;28;116792;-77
2024/02/01 03:49:40;;;;;;;1.77;1.38;;;;;;;20.78;41.96;102389.34;4911117;28;96895;-77
2024/02/01 03:52:07;;;;;;;2.58;1.60;;;;;;;20.79;42.01;102393.78;4910734;28;100120;-77
2024/02/01 03:54:33;;;;;;;3.28;1.80;;;;;;;20.78;41.98;102397.31;4928714;28;96856;-76
2024/02/01 03:56:58;;;;;;;2.67;1.90;;;;;;;20.79;41.83;102398.22;4908535;28;96868;-77
2024/02/01 03:59:24;;;;;;;2.03;0.90;;;;;;;20.79;42.14;102407.03;4911583;28;96830;-77
2024/02/01 04:01:50;;;;;;;2.50;1.15;;;;;;;20.79;42.02;102415.00;4928241;28;98292;-77
2024/02/01 04:04:18;;;;;;;2.03;1.42;;;;;;;20.79;41.84;102409.69;4910628;28;96746;-77
2024/02/01 04:06:45;;;;;;;2.17;1.25;;;;;;;20.79;41.86;102416.78;4924689;28;97109;-77
2024/02/01 04:09:10;;;;;;;2.40;1.55;;;;;;;20.80;41.85;102429.13;4910421;28;96873;-76
2024/02/01 04:11:36;;;;;;;2.85;1.45;;;;;;;20.80;41.78;102439.72;4909553;28;100132;-77
2024/02/01 04:14:01;;;;;;;2.60;1.30;;;;;;;20.80;41.91;102442.38;4928393;28;97241;-77
2024/02/01 04:16:27;;;;;;;2.20;1.63;;;;;;;20.81;42.17;102452.13;4922581;28;96745;-77
2024/02/01 04:18:55;;;;;;;2.40;1.10;;;;;;;20.79;41.85;102453.91;4923342;28;96861;-77
2024/02/01 04:21:21;;;;;;;2.00;1.80;;;;;;;20.80;41.65;102463.59;4910455;28;97001;-77
2024/02/01 04:23:46;;;;;;;2.00;1.20;;;;;;;20.79;41.87;102465.38;4928032;28;97100;-76
2024/02/01 04:26:15;;;;;;;1.95;1.13;;;;;;;20.78;42.22;102471.56;4908042;28;96853;-77
2024/02/01 04:28:41;;;;;;;2.15;1.20;;;;;;;20.79;41.78;102483.06;4910853;28;96887;-77
2024/02/01 04:31:06;;;;;;;2.17;1.40;;;;;;;20.79;41.89;102491.88;4908354;28;97848;-77
2024/02/01 04:33:32;;;;;;;3.25;1.20;;;;;;;20.79;42.14;102494.53;4921183;28;106245;-77
2024/02/01 04:35:58;;;;;;;2.30;1.40;;;;;;;20.79;42.01;102507.81;4908405;28;96899;-77
2024/02/01 04:38:25;;;;;;;2.28;1.77;;;;;;;20.79;41.84;102505.16;4915907;28;97310;-77
2024/02/01 04:40:53;;;;;;;2.60;1.38;;;;;;;20.79;42.07;102513.09;4907074;28;98358;-77
2024/02/01 04:43:19;;;;;;;1.42;0.80;;;;;;;20.80;42.11;102521.94;4925227;28;97486;-77
2024/02/01 04:45:45;;;;;;;2.08;1.35;;;;;;;20.80;41.83;102524.59;4907201;28;97362;-77
2024/02/01 04:48:10;;;;;;;2.00;1.08;;;;;;;20.80;42.15;102528.16;4920678;28;96986;-77
2024/02/01 04:50:40;;;;;;;2.97;1.58;;;;;;;20.79;42.02;102536.97;4909272;28;126694;-76
2024/02/01 04:53:06;;;;;;;2.10;1.02;;;;;;;20.79;42.25;102536.09;4928590;28;97423;-77
2024/02/01 04:55:32;;;;;;;2.58;1.63;;;;;;;20.79;41.83;102542.28;4894216;28;96875;-75
2024/02/01 04:57:58;;;;;;;2.15;0.82;;;;;;;20.80;42.15;102548.44;4927798;28;97193;-77
2024/02/01 05:00:23;;;;;;;1.98;0.88;;;;;;;20.80;42.05;102545.81;4924567;28;100038;-77
2024/02/01 05:02:49;;;;;;;1.92;1.23;;;;;;;20.80;41.78;102551.09;4927750;28;96757;-77
2024/02/01 05:05:16;;;;;;;2.70;1.15;;;;;;;20.79;41.81;102559.97;4927725;28;96823;-77
2024/02/01 05:07:42;;;;;;;1.90;1.20;;;;;;;20.80;41.77;102559.06;4926221;28;96867;-77
2024/02/01 05:10:09;;;;;;;2.22;0.88;;;;;;;20.79;41.79;102563.50;4909826;28;98007;-77
2024/02/01 05:12:41;;;;;;;1.60;1.08;;;;;;;20.79;42.14;102576.75;4911050;28;98422;-77
2024/02/01 05:15:08;;;;;;;2.17;0.90;;;;;;;20.78;42.08;102577.63;4919841;28;96864;-77
2024/02/01 05:17:34;;;;;;;2.60;1.40;;;;;;;20.78;42.13;102582.94;4912900;28;97747;-77
2024/02/01 05:19:59;;;;;;;2.10;1.33;;;;;;;20.79;42.02;102594.44;4913316;28;98090;-77
2024/02/01 05:22:26;;;;;;;2.55;1.58;;;;;;;20.79;42.16;102599.75;4911114;28;97643;-77
2024/02/01 05:24:52;;;;;;;2.70;1.30;;;;;;;20.79;42.17;102610.34;4913058;28;96821;-77
2024/02/01 05:27:20;;;;;;;1.92;1.00;;;;;;;20.80;41.98;102606.78;4911080;28;96766;-77
2024/02/01 05:29:49;;;;;;;2.33;1.02;;;;;;;20.78;42.10;102604.13;4912196;28;98497;-77
2024/02/01 05:32:15;;;;;;;1.95;1.55;;;;;;;20.78;42.06;102614.75;4930836;28;97475;-77
2024/02/01 05:34:41;;;;;;;2.08;1.17;;;;;;;20.79;41.98;102613.00;4913522;28;96837;-77
2024/02/01 05:37:07;;;;;;;1.92;1.45;;;;;;;20.79;42.06;102615.66;4929444;28;97134;-77
2024/02/01 05:39:32;;;;;;;3.30;2.05;;;;;;;20.79;42.08;102620.97;4922019;28;96692;-77
2024/02/01 05:42:04;;;;;;;3.03;1.15;;;;;;;20.79;41.75;102627.13;4924276;28;99995;-77
2024/02/01 05:44:30;;;;;;;2.03;1.08;;;;;;;20.79;41.89;102628.91;4922672;28;96836;-77
2024/02/01 05:46:57;;;;;;;1.80;1.10;;;;;;;20.79;42.09;102628.91;4929792;28;112047;-76
2024/02/01 05:49:28;;;;;;;2.20;1.65;;;;;;;20.79;42.18;102636.88;4922337;28;99769;-77
2024/02/01 05:51:58;;;;;;;2.10;1.25;;;;;;;20.79;42.03;102642.19;4912355;28;99415;-77
2024/02/01 05:54:24;;;;;;;2.70;1.35;;;;;;;20.80;42.00;102649.22;4913233;28;97126;-77
2024/02/01 05:56:49;;;;;;;2.30;1.70;;;;;;;20.78;41.86;102643.91;4930534;28;96826;-77
2024/02/01 05:59:17;;;;;;;1.95;0.93;;;;;;;20.78;42.02;102651.88;4908634;28;126158;-77
2024/02/01 06:01:44;;;;;;;1.80;1.20;;;;;;;20.79;42.18;102658.09;4910965;28;97278;-77
2024/02/01 06:04:10;;;;;;;2.10;1.67;;;;;;;20.78;42.09;102665.13;4909700;28;97174;-76
2024/02/01 06:06:42;;;;;;;2.28;1.55;;;;;;;20.79;42.02;102666.03;4929722;28;98876;-77
2024/02/01 06:09:10;;;;;;;3.15;1.52;;;;;;;20.79;41.69;102676.66;4912180;28;98078;-76
2024/02/01 06:11:44;;;;;;;2.42;1.15;;;;;;;20.78;41.72;102681.03;4911361;28;98450;-76
2024/02/01 06:14:10;;;;;;;2.17;1.25;;;;;;;20.79;42.02;102681.94;4926887;28;96696;-77
2024/02/01 06:16:35;;;;;;;1.90;1.20;;;;;;;20.78;42.15;102686.34;4929980;28;96817;-77
2024/02/01 06:19:01;;;;;;;1.60;1.00;;;;;;;20.78;42.13;102688.13;4929387;28;96666;-77
2024/02/01 06:21:27;;;;;;;1.35;0.80;;;;;;;20.79;41.94;102689.91;4912025;28;97513;-77
2024/02/01 06:23:52;;;;;;;2.67;0.93;;;;;;;20.79;41.71;102690.78;4925497;28;97211;-76
2024/02/01 06:26:25;;;;;;;1.73;0.95;;;;;;;20.79;41.77;102695.22;4927768;28;97445;-77
2024/02/01 06:28:56;;;;;;;3.03;1.83;;;;;;;20.78;41.99;102704.03;4925807;28;98506;-77
2024/02/01 06:31:24;;;;;;;2.28;1.23;;;;;;;20.78;42.12;102712.00;4930293;28;97224;-77
2024/02/01 06:33:50;;;;;;;2.25;1.30;;;;;;;20.78;41.69;102720.81;4911145;28;97136;-76
2024/02/01 06:36:19;;;;;;;2.38;0.90;;;;;;;20.78;42.00;102727.91;4911961;28;96709;-76
2024/02/01 06:41:41;;;;;;;2.40;1.10;;;;;;;20.77;41.71;102731.47;4929336;28;97092;-77
2024/02/01 06:49:39;;;;;;;2.67;1.55;;;;;;;20.76;42.16;102742.94;4918631;28;96839;-77
2024/02/01 06:54:50;;;;;;;3.65;1.33;;;;;;;20.75;41.81;102746.47;4929880;28;97193;-77
2024/02/01 06:57:18;;;;;;;2.58;1.33;;;;;;;20.75;41.76;102734.09;4929318;28;97073;-77
2024/02/01 07:00:06;;;;;;;3.65;1.10;;;;;;;20.76;41.80;102742.94;4910131;28;100023;-77
2024/02/01 07:02:35;;;;;;;1.58;0.95;;;;;;;20.75;42.00;102754.41;4923053;28;97854;-77
2024/02/01 07:05:11;;;;;;;2.13;0.88;;;;;;;20.75;41.84;102751.75;4924582;28;96630;-77
2024/02/01 07:07:43;;;;;;;3.78;1.48;;;;;;;20.75;42.08;102757.97;4927471;28;96945;-76
2024/02/01 07:10:16;;;;;;;2.00;1.20;;;;;;;20.76;42.05;102758.84;4928186;28;97693;-76
2024/02/01 07:12:42;;;;;;;2.70;1.38;;;;;;;20.75;41.65;102760.63;4926882;28;98746;-76
2024/02/01 07:17:58;;;;;;;2.38;0.80;;;;;;;20.75;41.76;102763.28;4913456;28;96829;-76
2024/02/01 07:20:35;;;;;;;2.28;1.20;;;;;;;20.75;41.79;102762.38;4924794;28;98710;-76
2024/02/01 07:23:16;;;;;;;2.40;1.30;;;;;;;20.77;41.79;102781.84;4908799;28;97178;-76
2024/02/01 07:25:48;;;;;;;2.45;1.30;;;;;;;20.76;41.74;102785.38;4920571;28;96874;-76
2024/02/01 07:58:29;;;;;;;2.17;0.77;;;;;;;20.72;41.95;102858.72;4927723;28;97721;-76
2024/02/01 08:00:56;;;;;;;2.65;1.50;;;;;;;20.72;41.75;102854.31;4911150;28;96834;-76
2024/02/01 08:08:35;;;;;;;1.85;0.80;;;;;;;20.68;41.99;102863.16;4922264;28;98650;-75
2024/02/01 08:11:02;;;;;;;2.47;1.00;;;;;;;20.72;41.98;102858.72;4913149;28;96914;-75
2024/02/01 08:13:27;;;;;;;1.70;0.80;;;;;;;20.72;41.71;102866.69;4907685;28;97804;-76
2024/02/01 08:15:54;;;;;;;1.73;0.70;;;;;;;20.74;42.03;102875.53;4924664;28;97206;-76
2024/02/01 08:18:19;;;;;;;1.88;1.13;;;;;;;20.75;41.79;102879.97;4897166;28;97697;-75
2024/02/01 08:20:46;;;;;;;2.20;1.20;;;;;;;20.76;41.79;102878.19;4901135;28;97181;-76
2024/02/01 08:23:18;;;;;;;2.97;1.10;;;;;;;20.77;41.80;102882.63;4907761;28;98093;-75
2024/02/01 08:25:48;;;;;;;1.90;0.82;;;;;;;20.78;41.83;102889.69;4914910;28;97389;-76
2024/02/01 08:28:15;;;;;;;3.92;0.98;;;;;;;20.78;41.73;102892.31;4907126;28;96954;-75
2024/02/01 08:30:41;;;;;;;2.63;0.93;;;;;;;20.78;41.74;102890.56;4922513;28;98292;-76
2024/02/01 08:33:15;;;;;;;3.15;1.13;;;;;;;20.80;41.91;102906.47;4922648;28;97651;-76
2024/02/01 08:35:41;;;;;;;3.80;1.23;;;;;;;20.79;41.71;102895.00;4908711;28;97534;-75
2024/02/01 08:38:07;;;;;;;3.35;1.40;;;;;;;20.80;41.68;102896.78;4918304;28;96966;-76
2024/02/01 08:40:33;;;;;;;3.08;1.10;;;;;;;20.80;41.73;102899.44;4918591;28;97038;-76
2024/02/01 08:42:59;;;;;;;2.65;1.00;;;;;;;20.81;41.56;102901.19;4907342;28;97143;-75
2024/02/01 08:45:29;;;;;;;3.00;1.02;;;;;;;20.81;41.89;102911.78;4921302;28;96729;-76
2024/02/01 08:48:02;;;;;;;3.28;1.00;;;;;;;20.82;41.71;102915.31;4920111;28;97167;-76
2024/02/01 08:50:34;;;;;;;3.20;1.25;;;;;;;20.82;41.57;102915.31;4910575;28;97123;-75
2024/02/01 08:53:00;;;;;;;4.15;1.45;;;;;;;20.81;41.53;102914.44;4891547;28;98963;-76
2024/02/01 08:55:27;;;;;;;2.92;0.85;;;;;;;20.83;41.54;102927.72;4910858;28;97209;-76
2024/02/01 08:57:54;;;;;;;1.95;0.93;;;;;;;20.84;41.61;102926.84;4912875;28;96761;-76
2024/02/01 09:00:26;;;;;;;3.60;0.90;;;;;;;20.84;41.50;102934.81;4918104;28;97018;-76
2024/02/01 09:03:15;;;;;;;2.65;0.88;;;;;;;20.84;41.60;102943.63;4915381;28;97659;-75
2024/02/01 09:05:46;;;;;;;3.03;1.48;;;;;;;20.83;41.73;102938.31;4922350;28;100178;-76
2024/02/01 09:08:14;;;;;;;2.58;1.30;;;;;;;20.84;41.76;102954.25;4921568;28;97351;-76
2024/02/01 09:11:00;;;;;;;2.40;1.15;;;;;;;20.84;41.92;102954.25;4915614;28;97179;-76
2024/02/01 09:13:30;;;;;;;1.90;0.57;;;;;;;20.83;41.72;102951.56;4919559;28;97713;-76
2024/02/01 09:15:56;;;;;;;2.17;0.70;;;;;;;20.85;41.89;102960.41;4919312;28;97638;-76
2024/02/01 09:18:23;;;;;;;3.22;1.33;;;;;;;20.85;41.92;102958.66;4916837;28;96743;-75
2024/02/01 09:20:49;;;;;;;2.28;0.80;;;;;;;20.86;41.67;102956.91;4916296;28;103345;-75
2024/02/01 09:23:14;;;;;;;4.45;1.17;;;;;;;20.87;41.97;102958.66;4907227;28;103231;-76
2024/02/01 09:25:41;;;;;;;2.42;1.25;;;;;;;20.87;41.72;102959.56;4909722;28;97567;-77
2024/02/01 09:28:13;;;;;;;3.08;0.82;;;;;;;20.88;41.61;102955.13;4907977;28;97141;-76
2024/02/01 09:30:57;;;;;;;3.55;0.90;;;;;;;20.88;41.84;102957.78;4923784;28;96845;-76
2024/02/01 09:33:28;;;;;;;2.42;1.00;;;;;;;20.89;41.90;102964.84;4926304;28;98704;-76
2024/02/01 09:35:56;;;;;;;2.72;1.13;;;;;;;20.90;41.65;102964.84;4916951;28;98989;-76
2024/02/01 09:38:22;;;;;;;3.40;0.93;;;;;;;20.91;41.43;102973.72;4904078;28;96930;-75
2024/02/01 09:40:48;;;;;;;3.17;1.40;;;;;;;20.92;41.87;102979.00;4922372;28;96822;-76
2024/02/01 09:43:20;;;;;;;3.92;0.95;;;;;;;20.93;41.58;102974.59;4900875;28;98365;-76
2024/02/01 09:45:46;;;;;;;3.72;0.98;;;;;;;20.94;41.48;102973.72;4918797;28;97620;-76
2024/02/01 09:48:18;;;;;;;4.40;1.67;;;;;;;20.96;41.56;102979.03;4906829;28;97022;-75
2024/02/01 09:50:52;;;;;;;5.53;1.38;;;;;;;20.95;41.47;102971.97;4924234;28;98660;-76
2024/02/01 09:53:23;;;;;;;3.95;1.88;;;;;;;20.96;41.52;102974.59;4907869;28;98252;-75
2024/02/01 09:55:54;;;;;;;3.20;1.27;;;;;;;20.97;41.86;102978.16;4927039;28;97130;-76
2024/02/01 09:58:20;;;;;;;3.85;1.10;;;;;;;20.98;41.66;102986.13;4930727;28;96947;-75
2024/02/01 10:00:47;;;;;;;3.58;1.27;;;;;;;20.99;41.77;102990.53;4896808;28;97334;-76
2024/02/01 10:03:14;;;;;;;4.63;1.05;;;;;;;21.00;41.91;102994.97;4926161;28;97617;-76
2024/02/01 10:05:41;;;;;;;2.78;0.88;;;;;;;21.00;41.72;102992.31;4926321;28;96803;-76
2024/02/01 10:08:14;;;;;;;3.97;1.27;;;;;;;21.00;41.60;103005.56;4926512;28;96959;-76
2024/02/01 10:10:41;;;;;;;3.58;1.45;;;;;;;21.02;41.73;102997.63;4925666;28;96972;-76
2024/02/01 10:13:10;;;;;;;4.63;1.02;;;;;;;21.02;41.60;103013.56;4926466;28;96784;-76
2024/02/01 10:15:37;;;;;;;4.78;1.15;;;;;;;21.02;41.77;103019.72;4910434;28;97137;-76
2024/02/01 10:18:07;;;;;;;4.22;1.25;;;;;;;21.03;41.46;103026.81;4923454;28;97300;-77
2024/02/01 10:20:41;;;;;;;3.58;1.27;;;;;;;21.04;41.62;103033.88;4914521;28;96842;-76
2024/02/01 10:23:09;;;;;;;4.43;1.20;;;;;;;21.04;41.54;103051.59;4921666;28;97766;-76
2024/02/01 10:25:42;;;;;;;2.90;1.23;;;;;;;21.05;41.68;103051.59;4909327;28;97496;-76
2024/02/01 10:28:09;;;;;;;4.10;1.33;;;;;;;21.06;41.36;103039.19;4911664;28;96890;-76
2024/02/01 10:30:42;;;;;;;4.82;1.52;;;;;;;21.05;41.61;103033.00;4906707;28;99531;-76
2024/02/01 10:33:09;;;;;;;3.60;1.20;;;;;;;21.07;41.53;103030.38;4909367;28;97117;-76
2024/02/01 10:35:36;;;;;;;3.90;1.52;;;;;;;21.07;41.80;103035.69;4926650;28;99367;-76
2024/02/01 10:38:11;;;;;;;6.45;1.83;;;;;;;21.08;41.65;103033.00;4908687;28;97525;-76
2024/02/01 10:40:44;;;;;;;4.82;1.15;;;;;;;21.08;41.69;103040.09;4916110;28;97007;-76
2024/02/01 10:43:17;;;;;;;2.60;1.08;;;;;;;21.09;41.55;103033.91;4919598;28;97826;-76
2024/02/01 10:45:45;;;;;;;3.83;1.50;;;;;;;21.10;41.55;103031.28;4926401;28;97378;-76
2024/02/01 10:48:13;;;;;;;9.70;1.58;;;;;;;21.10;41.67;103033.94;4929521;28;97005;-76
2024/02/01 10:50:39;;;;;;;3.15;1.25;;;;;;;21.11;41.60;103032.16;4928920;28;96971;-76
2024/02/01 10:53:11;;;;;;;3.83;1.10;;;;;;;21.11;41.53;103037.44;4911933;28;98233;-76
2024/02/01 10:55:40;;;;;;;3.83;1.40;;;;;;;21.10;41.78;103028.63;4920360;28;97143;-75
2024/02/01 10:58:13;;;;;;;4.10;1.45;;;;;;;21.12;41.59;103025.94;4909141;28;97414;-76
2024/02/01 11:00:43;;;;;;;5.20;1.48;;;;;;;21.12;41.48;103023.28;4929674;28;96695;-76
2024/02/01 11:03:11;;;;;;;2.72;1.13;;;;;;;21.11;41.44;103030.38;4911975;28;98004;-76
2024/02/01 11:05:36;;;;;;;4.50;1.55;;;;;;;21.11;41.48;103018.88;4929792;28;97437;-76
2024/02/01 11:08:02;;;;;;;4.55;1.38;;;;;;;21.13;41.74;103011.81;4929100;28;96758;-75
2024/02/01 11:10:28;;;;;;;5.22;1.70;;;;;;;21.13;41.37;103017.13;4911116;28;96744;-76
2024/02/01 11:12:55;;;;;;;3.28;1.42;;;;;;;21.12;41.38;103025.94;4928995;28;96660;-76
2024/02/01 11:15:29;;;;;;;4.97;1.13;;;;;;;21.13;41.68;103018.88;4929327;28;96889;-75
2024/02/01 11:17:59;;;;;;;4.07;1.23;;;;;;;21.13;41.35;103034.81;4928300;28;96990;-76
2024/02/01 11:20:30;;;;;;;4.63;1.10;;;;;;;21.14;41.32;103031.25;4929419;28;97083;-76
2024/02/01 11:22:56;;;;;;;4.20;1.35;;;;;;;21.13;41.35;103029.50;4929429;28;96832;-76
2024/02/01 11:25:28;;;;;;;3.95;1.30;;;;;;;21.12;41.34;103028.59;4911996;28;97667;-76
2024/02/01 11:27:54;;;;;;;5.32;1.77;;;;;;;21.12;41.60;103028.59;4908331;28;96923;-76
2024/02/01 11:30:26;;;;;;;3.55;1.63;;;;;;;21.11;41.67;103038.34;4917638;28;96969;-75
2024/02/01 11:32:52;;;;;;;6.53;1.67;;;;;;;21.11;41.51;103029.50;4928586;28;97186;-76
2024/02/01 11:35:17;;;;;;;5.43;1.58;;;;;;;21.09;41.41;103029.47;4927740;28;97396;-76
2024/02/01 11:37:43;;;;;;;6.82;1.38;;;;;;;21.10;41.47;103038.31;4925537;28;97084;-75
2024/02/01 11:40:15;;;;;;;5.15;1.50;;;;;;;21.10;41.23;103043.63;4898806;28;97573;-76
2024/02/01 11:42:45;;;;;;;5.38;1.30;;;;;;;21.09;41.28;103044.53;4919887;28;100909;-76
2024/02/01 11:45:14;;;;;;;4.20;1.65;;;;;;;21.08;41.78;103040.97;4910791;28;97397;-76
2024/02/01 11:47:40;;;;;;;4.45;1.60;;;;;;;21.10;41.69;103052.50;4910173;28;97910;-76
2024/02/01 11:50:07;;;;;;;3.03;1.13;;;;;;;21.11;41.43;103048.94;4909639;28;96921;-75
2024/02/01 11:53:05;;;;;;;5.95;1.48;;;;;;;21.11;41.59;103042.75;4912945;28;98082;-76
2024/02/01 11:55:33;;;;;;;3.08;1.38;;;;;;;21.11;41.79;103038.34;4927485;28;97362;-76
2024/02/01 11:58:00;;;;;;;4.60;2.05;;;;;;;21.11;41.71;103043.63;4910010;28;97980;-76
2024/02/01 12:00:26;;;;;;;4.50;1.45;;;;;;;21.13;41.64;103034.81;4924935;28;96840;-75
2024/02/01 12:02:52;;;;;;;4.70;1.50;;;;;;;21.13;41.59;103041.00;4906924;28;96953;-76
2024/02/01 12:05:19;;;;;;;4.20;1.50;;;;;;;21.14;41.58;103032.16;4914322;28;100050;-75
2024/02/01 12:07:44;;;;;;;3.97;1.30;;;;;;;21.14;41.42;103028.59;4923422;28;97274;-76
2024/02/01 12:10:11;;;;;;;4.18;1.23;;;;;;;21.14;41.46;103028.59;4924954;28;97147;-76
2024/02/01 12:12:42;;;;;;;5.80;1.40;;;;;;;21.15;41.51;103025.09;4925609;28;98499;-76
2024/02/01 12:15:08;;;;;;;5.25;1.17;;;;;;;21.16;41.42;103024.19;4926476;28;97137;-75